sensor_id;sensor_type;location;lat;lon;timestamp;pressure;altitude;pressure_sealevel;temperature
50206;BMP280;36098;48.390;10.856;2023-09-19T00:01:29;95754.84;;;26.62
50206;BMP280;36098;48.390;10.856;2023-09-19T00:03:57;95750.91;;;26.60
50206;BMP280;36098;48.390;10.856;2023-09-19T00:06:23;95752.94;;;26.63
50206;BMP280;36098;48.390;10.856;2023-09-19T00:08:51;95751.66;;;26.60
50206;BMP280;36098;48.390;10.856;2023-09-19T00:11:16;95752.75;;;26.59
50206;BMP280;36098;48.390;10.856;2023-09-19T00:13:41;95759.44;;;26.57
50206;BMP280;36098;48.390;10.856;2023-09-19T00:16:09;95754.63;;;26.59
50206;BMP280;36098;48.390;10.856;2023-09-19T00:18:36;95758.66;;;26.56
50206;BMP280;36098;48.390;10.856;2023-09-19T00:21:02;95752.59;;;26.56
50206;BMP280;36098;48.390;10.856;2023-09-19T00:23:29;95752.75;;;26.59
50206;BMP280;36098;48.390;10.856;2023-09-19T00:26:01;95754.75;;;26.54
50206;BMP280;36098;48.390;10.856;2023-09-19T00:28:27;95757.56;;;26.57
50206;BMP280;36098;48.390;10.856;2023-09-19T00:30:52;95760.06;;;26.54
50206;BMP280;36098;48.390;10.856;2023-09-19T00:33:19;95774.06;;;26.54
50206;BMP280;36098;48.390;10.856;2023-09-19T00:38:13;95788.69;;;26.52
50206;BMP280;36098;48.390;10.856;2023-09-19T00:40:44;95786.03;;;26.52
50206;BMP280;36098;48.390;10.856;2023-09-19T00:43:09;95781.50;;;26.52
50206;BMP280;36098;48.390;10.856;2023-09-19T00:45:36;95787.59;;;26.53
50206;BMP280;36098;48.390;10.856;2023-09-19T00:48:04;95772.19;;;26.55
50206;BMP280;36098;48.390;10.856;2023-09-19T00:50:36;95774.84;;;26.55
50206;BMP280;36098;48.390;10.856;2023-09-19T00:53:02;95780.75;;;26.52
50206;BMP280;36098;48.390;10.856;2023-09-19T00:55:34;95783.69;;;26.50
50206;BMP280;36098;48.390;10.856;2023-09-19T00:58:00;95801.94;;;26.52
50206;BMP280;36098;48.390;10.856;2023-09-19T01:00:25;95807.28;;;26.47
50206;BMP280;36098;48.390;10.856;2023-09-19T01:02:51;95794.63;;;26.44
50206;BMP280;36098;48.390;10.856;2023-09-19T01:05:16;95778.16;;;26.47
50206;BMP280;36098;48.390;10.856;2023-09-19T01:07:42;95793.47;;;26.50
50206;BMP280;36098;48.390;10.856;2023-09-19T01:10:12;95797.41;;;26.52
50206;BMP280;36098;48.390;10.856;2023-09-19T01:13:13;95792.69;;;26.49
50206;BMP280;36098;48.390;10.856;2023-09-19T01:16:08;95797.19;;;26.49
50206;BMP280;36098;48.390;10.856;2023-09-19T01:18:52;95798.38;;;26.43
50206;BMP280;36098;48.390;10.856;2023-09-19T01:21:29;95786.44;;;26.32
50206;BMP280;36098;48.390;10.856;2023-09-19T01:27:13;95799.94;;;26.44
50206;BMP280;36098;48.390;10.856;2023-09-19T01:29:45;95796.00;;;26.41
50206;BMP280;36098;48.390;10.856;2023-09-19T01:32:13;95799.94;;;26.44
50206;BMP280;36098;48.390;10.856;2023-09-19T01:34:47;95797.28;;;26.44
50206;BMP280;36098;48.390;10.856;2023-09-19T01:37:14;95797.19;;;26.49
50206;BMP280;36098;48.390;10.856;2023-09-19T01:39:44;95792.31;;;26.42
50206;BMP280;36098;48.390;10.856;2023-09-19T01:45:07;95803.66;;;26.43
50206;BMP280;36098;48.390;10.856;2023-09-19T01:47:42;95811.22;;;26.36
50206;BMP280;36098;48.390;10.856;2023-09-19T01:52:51;95804.75;;;26.42
50206;BMP280;36098;48.390;10.856;2023-09-19T01:55:17;95808.06;;;26.47
50206;BMP280;36098;48.390;10.856;2023-09-19T01:59:01;95804.25;;;26.40
50206;BMP280;36098;48.390;10.856;2023-09-19T02:00:54;95792.22;;;26.34
50206;BMP280;36098;48.390;10.856;2023-09-19T02:03:22;95801.00;;;26.43
50206;BMP280;36098;48.390;10.856;2023-09-19T02:05:50;95798.00;;;26.36
50206;BMP280;36098;48.390;10.856;2023-09-19T02:08:17;95803.28;;;26.36
50206;BMP280;36098;48.390;10.856;2023-09-19T02:10:44;95810.75;;;26.34
50206;BMP280;36098;48.390;10.856;2023-09-19T02:13:23;95812.31;;;26.35
50206;BMP280;36098;48.390;10.856;2023-09-19T02:15:52;95821.91;;;26.31
50206;BMP280;36098;48.390;10.856;2023-09-19T02:18:17;95812.31;;;26.35
50206;BMP280;36098;48.390;10.856;2023-09-19T02:20:43;95817.69;;;26.30
50206;BMP280;36098;48.390;10.856;2023-09-19T02:23:09;95822.09;;;26.34
50206;BMP280;36098;48.390;10.856;2023-09-19T02:25:34;95826.63;;;26.34
50206;BMP280;36098;48.390;10.856;2023-09-19T02:28:04;95821.34;;;26.34
50206;BMP280;36098;48.390;10.856;2023-09-19T02:30:31;95819.16;;;26.36
50206;BMP280;36098;48.390;10.856;2023-09-19T02:32:56;95828.38;;;26.38
50206;BMP280;36098;48.390;10.856;2023-09-19T02:35:21;95822.09;;;26.34
50206;BMP280;36098;48.390;10.856;2023-09-19T02:37:48;95825.63;;;26.30
50206;BMP280;36098;48.390;10.856;2023-09-19T02:40:13;95820.13;;;26.40
50206;BMP280;36098;48.390;10.856;2023-09-19T02:42:48;95821.72;;;26.41
50206;BMP280;36098;48.390;10.856;2023-09-19T02:45:18;95823.66;;;26.35
50206;BMP280;36098;48.390;10.856;2023-09-19T02:47:45;95825.53;;;26.35
50206;BMP280;36098;48.390;10.856;2023-09-19T02:50:10;95833.50;;;26.35
50206;BMP280;36098;48.390;10.856;2023-09-19T02:52:36;95836.63;;;26.37
50206;BMP280;36098;48.390;10.856;2023-09-19T02:55:02;95842.50;;;26.34
50206;BMP280;36098;48.390;10.856;2023-09-19T02:57:29;95837.22;;;26.34
50206;BMP280;36098;48.390;10.856;2023-09-19T02:59:54;95843.75;;;26.36
50206;BMP280;36098;48.390;10.856;2023-09-19T03:02:19;95842.50;;;26.34
50206;BMP280;36098;48.390;10.856;2023-09-19T03:04:45;95841.50;;;26.30
50206;BMP280;36098;48.390;10.856;2023-09-19T03:07:12;95851.31;;;26.29
50206;BMP280;36098;48.390;10.856;2023-09-19T03:09:37;95845.63;;;26.36
50206;BMP280;36098;48.390;10.856;2023-09-19T03:12:03;95852.00;;;26.35
50206;BMP280;36098;48.390;10.856;2023-09-19T03:14:29;95852.09;;;26.30
50206;BMP280;36098;48.390;10.856;2023-09-19T03:17:00;95842.78;;;26.32
50206;BMP280;36098;48.390;10.856;2023-09-19T03:19:26;95844.34;;;26.33
50206;BMP280;36098;48.390;10.856;2023-09-19T03:21:52;95851.00;;;26.31
50206;BMP280;36098;48.390;10.856;2023-09-19T03:24:18;95857.09;;;26.31
50206;BMP280;36098;48.390;10.856;2023-09-19T03:26:43;95852.19;;;26.38
50206;BMP280;36098;48.390;10.856;2023-09-19T03:29:10;95855.44;;;26.35
50206;BMP280;36098;48.390;10.856;2023-09-19T03:31:36;95849.38;;;26.35
50206;BMP280;36098;48.390;10.856;2023-09-19T03:34:02;95854.66;;;26.35
50206;BMP280;36098;48.390;10.856;2023-09-19T03:36:29;95856.63;;;26.29
50206;BMP280;36098;48.390;10.856;2023-09-19T03:38:54;95859.47;;;26.33
50206;BMP280;36098;48.390;10.856;2023-09-19T03:41:19;95851.81;;;26.31
50206;BMP280;36098;48.390;10.856;2023-09-19T03:43:45;95849.28;;;26.26
50206;BMP280;36098;48.390;10.856;2023-09-19T03:46:10;95850.13;;;26.35
50206;BMP280;36098;48.390;10.856;2023-09-19T03:48:37;95854.47;;;26.31
50206;BMP280;36098;48.390;10.856;2023-09-19T03:51:03;95855.25;;;26.32
50206;BMP280;36098;48.390;10.856;2023-09-19T03:53:28;95853.16;;;26.29
50206;BMP280;36098;48.390;10.856;2023-09-19T03:55:53;95858.66;;;26.32
50206;BMP280;36098;48.390;10.856;2023-09-19T03:58:19;95859.53;;;26.28
50206;BMP280;36098;48.390;10.856;2023-09-19T04:00:45;95858.94;;;26.31
50206;BMP280;36098;48.390;10.856;2023-09-19T04:03:11;95866.31;;;26.34
50206;BMP280;36098;48.390;10.856;2023-09-19T04:05:44;95860.13;;;26.25
50206;BMP280;36098;48.390;10.856;2023-09-19T04:08:09;95868.56;;;26.27
50206;BMP280;36098;48.390;10.856;2023-09-19T04:10:35;95861.03;;;26.34
50206;BMP280;36098;48.390;10.856;2023-09-19T04:13:00;95862.88;;;26.33
50206;BMP280;36098;48.390;10.856;2023-09-19T04:15:26;95861.13;;;26.29
50206;BMP280;36098;48.390;10.856;2023-09-19T04:17:51;95859.38;;;26.24
50206;BMP280;36098;48.390;10.856;2023-09-19T04:20:17;95864.19;;;26.22
50206;BMP280;36098;48.390;10.856;2023-09-19T04:22:43;95871.81;;;26.37
50206;BMP280;36098;48.390;10.856;2023-09-19T04:25:08;95876.63;;;26.49
50206;BMP280;36098;48.390;10.856;2023-09-19T04:27:33;95888.75;;;26.23
50206;BMP280;36098;48.390;10.856;2023-09-19T04:29:59;95882.59;;;26.27
50206;BMP280;36098;48.390;10.856;2023-09-19T04:32:28;95891.31;;;26.28
50206;BMP280;36098;48.390;10.856;2023-09-19T04:34:54;95893.28;;;26.22
50206;BMP280;36098;48.390;10.856;2023-09-19T04:37:20;95887.41;;;26.25
50206;BMP280;36098;48.390;10.856;2023-09-19T04:39:46;95897.28;;;26.20
50206;BMP280;36098;48.390;10.856;2023-09-19T04:42:13;95900.44;;;26.22
50206;BMP280;36098;48.390;10.856;2023-09-19T04:44:39;95899.84;;;26.25
50206;BMP280;36098;48.390;10.856;2023-09-19T04:47:05;95902.91;;;26.32
50206;BMP280;36098;48.390;10.856;2023-09-19T04:49:31;95903.78;;;26.27
50206;BMP280;36098;48.390;10.856;2023-09-19T04:51:56;95903.06;;;26.22
50206;BMP280;36098;48.390;10.856;2023-09-19T04:54:22;95906.78;;;26.21
50206;BMP280;36098;48.390;10.856;2023-09-19T04:56:47;95906.41;;;26.27
50206;BMP280;36098;48.390;10.856;2023-09-19T04:59:13;95916.31;;;26.22
50206;BMP280;36098;48.390;10.856;2023-09-19T05:01:39;95915.50;;;26.21
50206;BMP280;36098;48.390;10.856;2023-09-19T05:04:05;95918.06;;;26.13
50206;BMP280;36098;48.390;10.856;2023-09-19T05:06:31;95914.50;;;26.04
50206;BMP280;36098;48.390;10.856;2023-09-19T05:08:56;95922.19;;;26.19
50206;BMP280;36098;48.390;10.856;2023-09-19T05:11:21;95913.47;;;26.32
50206;BMP280;36098;48.390;10.856;2023-09-19T05:13:48;95919.34;;;26.29
50206;BMP280;36098;48.390;10.856;2023-09-19T05:16:17;95929.25;;;26.23
50206;BMP280;36098;48.390;10.856;2023-09-19T05:18:43;95923.56;;;26.30
50206;BMP280;36098;48.390;10.856;2023-09-19T05:21:08;95937.22;;;26.37
50206;BMP280;36098;48.390;10.856;2023-09-19T05:23:33;95930.34;;;26.36
50206;BMP280;36098;48.390;10.856;2023-09-19T05:25:59;95929.94;;;26.29
50206;BMP280;36098;48.390;10.856;2023-09-19T05:28:25;95927.59;;;26.41
50206;BMP280;36098;48.390;10.856;2023-09-19T05:30:52;95933.88;;;26.31
50206;BMP280;36098;48.390;10.856;2023-09-19T05:33:18;95939.16;;;26.45
50206;BMP280;36098;48.390;10.856;2023-09-19T05:35:44;95940.34;;;26.39
50206;BMP280;36098;48.390;10.856;2023-09-19T05:38:11;95939.38;;;26.35
50206;BMP280;36098;48.390;10.856;2023-09-19T05:40:37;95931.91;;;26.37
50206;BMP280;36098;48.390;10.856;2023-09-19T05:43:04;95943.47;;;26.27
50206;BMP280;36098;48.390;10.856;2023-09-19T05:45:30;95946.13;;;26.41
50206;BMP280;36098;48.390;10.856;2023-09-19T05:48:07;95949.94;;;26.35
50206;BMP280;36098;48.390;10.856;2023-09-19T05:50:33;95941.69;;;26.36
50206;BMP280;36098;48.390;10.856;2023-09-19T05:52:59;95943.84;;;26.21
50206;BMP280;36098;48.390;10.856;2023-09-19T05:55:24;95951.03;;;26.34
50206;BMP280;36098;48.390;10.856;2023-09-19T05:57:53;95948.97;;;26.44
50206;BMP280;36098;48.390;10.856;2023-09-19T06:00:23;95950.63;;;26.40
50206;BMP280;36098;48.390;10.856;2023-09-19T06:02:56;95947.38;;;26.30
50206;BMP280;36098;48.390;10.856;2023-09-19T06:05:26;95954.75;;;26.33
50206;BMP280;36098;48.390;10.856;2023-09-19T06:07:57;95957.22;;;26.43
50206;BMP280;36098;48.390;10.856;2023-09-19T06:10:26;95960.34;;;26.45
50206;BMP280;36098;48.390;10.856;2023-09-19T06:12:53;95960.59;;;26.30
50206;BMP280;36098;48.390;10.856;2023-09-19T06:15:20;95952.09;;;26.33
50206;BMP280;36098;48.390;10.856;2023-09-19T06:17:53;95958.47;;;26.32
50206;BMP280;36098;48.390;10.856;2023-09-19T06:20:23;95959.94;;;26.24
50206;BMP280;36098;48.390;10.856;2023-09-19T06:22:50;95968.41;;;26.53
50206;BMP280;36098;48.390;10.856;2023-09-19T06:25:16;95974.38;;;26.32
50206;BMP280;36098;48.390;10.856;2023-09-19T06:27:49;95971.03;;;26.26
50206;BMP280;36098;48.390;10.856;2023-09-19T06:30:17;95969.63;;;26.29
50206;BMP280;36098;48.390;10.856;2023-09-19T06:32:43;95972.59;;;26.27
50206;BMP280;36098;48.390;10.856;2023-09-19T06:35:15;95981.66;;;26.21
50206;BMP280;36098;48.390;10.856;2023-09-19T06:37:42;95976.00;;;26.28
50206;BMP280;36098;48.390;10.856;2023-09-19T06:40:10;95990.00;;;26.15
50206;BMP280;36098;48.390;10.856;2023-09-19T06:42:46;95988.22;;;26.10
50206;BMP280;36098;48.390;10.856;2023-09-19T06:45:13;95985.84;;;26.09
50206;BMP280;36098;48.390;10.856;2023-09-19T06:47:43;95988.91;;;26.02
50206;BMP280;36098;48.390;10.856;2023-09-19T06:50:09;95977.91;;;26.41
50206;BMP280;36098;48.390;10.856;2023-09-19T06:52:39;95989.53;;;26.26
50206;BMP280;36098;48.390;10.856;2023-09-19T06:55:05;95997.28;;;26.23
50206;BMP280;36098;48.390;10.856;2023-09-19T06:57:31;95996.94;;;26.11
50206;BMP280;36098;48.390;10.856;2023-09-19T06:59:57;95990.88;;;26.10
50206;BMP280;36098;48.390;10.856;2023-09-19T07:02:22;95999.09;;;26.09
50206;BMP280;36098;48.390;10.856;2023-09-19T07:04:47;96002.66;;;26.18
50206;BMP280;36098;48.390;10.856;2023-09-19T07:07:15;96004.00;;;26.15
50206;BMP280;36098;48.390;10.856;2023-09-19T07:09:40;96008.03;;;26.13
50206;BMP280;36098;48.390;10.856;2023-09-19T07:12:07;96010.47;;;26.09
50206;BMP280;36098;48.390;10.856;2023-09-19T07:14:32;96010.69;;;26.13
50206;BMP280;36098;48.390;10.856;2023-09-19T07:16:58;96023.91;;;26.13
50206;BMP280;36098;48.390;10.856;2023-09-19T07:19:25;96024.09;;;26.16
50206;BMP280;36098;48.390;10.856;2023-09-19T07:21:53;96021.28;;;26.13
50206;BMP280;36098;48.390;10.856;2023-09-19T07:24:18;96024.22;;;26.25
50206;BMP280;36098;48.390;10.856;2023-09-19T07:26:45;96019.03;;;26.20
50206;BMP280;36098;48.390;10.856;2023-09-19T07:29:10;96022.13;;;26.08
50206;BMP280;36098;48.390;10.856;2023-09-19T07:31:36;96026.16;;;26.19
50206;BMP280;36098;48.390;10.856;2023-09-19T07:34:01;96010.78;;;26.21
50206;BMP280;36098;48.390;10.856;2023-09-19T07:36:29;96016.06;;;26.21
50206;BMP280;36098;48.390;10.856;2023-09-19T07:38:55;96015.56;;;26.19
50206;BMP280;36098;48.390;10.856;2023-09-19T07:41:23;96018.16;;;26.24
50206;BMP280;36098;48.390;10.856;2023-09-19T07:43:48;96012.44;;;26.17
50206;BMP280;36098;48.390;10.856;2023-09-19T07:46:14;96019.31;;;26.18
50206;BMP280;36098;48.390;10.856;2023-09-19T07:48:39;96025.09;;;26.20
50206;BMP280;36098;48.390;10.856;2023-09-19T07:51:06;96027.09;;;26.28
50206;BMP280;36098;48.390;10.856;2023-09-19T07:53:33;96033.16;;;26.29
50206;BMP280;36098;48.390;10.856;2023-09-19T07:56:06;96037.38;;;26.30
50206;BMP280;36098;48.390;10.856;2023-09-19T07:58:31;96032.59;;;26.32
50206;BMP280;36098;48.390;10.856;2023-09-19T08:01:09;96035.44;;;26.35
50206;BMP280;36098;48.390;10.856;2023-09-19T08:03:36;96034.81;;;26.25
50206;BMP280;36098;48.390;10.856;2023-09-19T08:06:05;96038.25;;;26.25
50206;BMP280;36098;48.390;10.856;2023-09-19T08:08:32;96035.97;;;26.19
50206;BMP280;36098;48.390;10.856;2023-09-19T08:10:57;96046.56;;;26.19
50206;BMP280;36098;48.390;10.856;2023-09-19T08:13:23;96036.84;;;26.14
50206;BMP280;36098;48.390;10.856;2023-09-19T08:15:49;96040.94;;;26.07
50206;BMP280;36098;48.390;10.856;2023-09-19T08:18:16;96044.06;;;26.09
50206;BMP280;36098;48.390;10.856;2023-09-19T08:20:42;96044.88;;;26.09
50206;BMP280;36098;48.390;10.856;2023-09-19T08:23:11;96037.47;;;26.25
50206;BMP280;36098;48.390;10.856;2023-09-19T08:25:36;96042.44;;;26.13
50206;BMP280;36098;48.390;10.856;2023-09-19T08:28:03;96039.38;;;26.38
50206;BMP280;36098;48.390;10.856;2023-09-19T08:30:33;96043.00;;;26.42
50206;BMP280;36098;48.390;10.856;2023-09-19T08:33:00;96046.81;;;26.36
50206;BMP280;36098;48.390;10.856;2023-09-19T08:35:26;96041.81;;;26.34
50206;BMP280;36098;48.390;10.856;2023-09-19T08:37:52;96040.59;;;26.27
50206;BMP280;36098;48.390;10.856;2023-09-19T08:40:17;96038.66;;;26.32
50206;BMP280;36098;48.390;10.856;2023-09-19T08:42:54;96042.56;;;26.53
50206;BMP280;36098;48.390;10.856;2023-09-19T08:45:20;96042.47;;;26.58
50206;BMP280;36098;48.390;10.856;2023-09-19T08:47:56;96041.94;;;26.43
50206;BMP280;36098;48.390;10.856;2023-09-19T08:50:29;96047.00;;;26.58
50206;BMP280;36098;48.390;10.856;2023-09-19T08:52:56;96040.44;;;26.37
50206;BMP280;36098;48.390;10.856;2023-09-19T08:55:27;96045.88;;;26.45
50206;BMP280;36098;48.390;10.856;2023-09-19T08:57:59;96051.03;;;26.37
50206;BMP280;36098;48.390;10.856;2023-09-19T09:00:27;96046.31;;;26.34
50206;BMP280;36098;48.390;10.856;2023-09-19T09:02:54;96043.38;;;26.54
50206;BMP280;36098;48.390;10.856;2023-09-19T09:05:20;96046.38;;;26.29
50206;BMP280;36098;48.390;10.856;2023-09-19T09:07:52;96057.53;;;26.44
50206;BMP280;36098;48.390;10.856;2023-09-19T09:10:20;96059.16;;;26.59
50206;BMP280;36098;48.390;10.856;2023-09-19T09:12:52;96058.44;;;26.53
50206;BMP280;36098;48.390;10.856;2023-09-19T09:15:22;96059.44;;;26.07
50206;BMP280;36098;48.390;10.856;2023-09-19T09:17:50;96058.25;;;25.81
50206;BMP280;36098;48.390;10.856;2023-09-19T09:20:16;96060.34;;;25.84
50206;BMP280;36098;48.390;10.856;2023-09-19T09:22:52;96066.34;;;25.89
50206;BMP280;36098;48.390;10.856;2023-09-19T09:25:47;96071.25;;;25.77
50206;BMP280;36098;48.390;10.856;2023-09-19T09:28:19;96071.59;;;25.71
50206;BMP280;36098;48.390;10.856;2023-09-19T09:30:45;96070.50;;;25.53
50206;BMP280;36098;48.390;10.856;2023-09-19T09:33:11;96064.91;;;25.36
50206;BMP280;36098;48.390;10.856;2023-09-19T09:35:56;96078.78;;;25.28
50206;BMP280;36098;48.390;10.856;2023-09-19T09:38:24;96074.84;;;25.26
50206;BMP280;36098;48.390;10.856;2023-09-19T09:40:56;96074.94;;;25.16
50206;BMP280;36098;48.390;10.856;2023-09-19T09:43:34;96082.47;;;25.04
50206;BMP280;36098;48.390;10.856;2023-09-19T09:46:16;96078.16;;;24.61
50206;BMP280;36098;48.390;10.856;2023-09-19T09:49:02;96078.84;;;24.72
50206;BMP280;36098;48.390;10.856;2023-09-19T09:51:58;96080.03;;;24.84
50206;BMP280;36098;48.390;10.856;2023-09-19T09:54:28;96089.59;;;24.80
50206;BMP280;36098;48.390;10.856;2023-09-19T09:57:08;96076.59;;;24.84
50206;BMP280;36098;48.390;10.856;2023-09-19T09:59:55;96078.63;;;24.92
50206;BMP280;36098;48.390;10.856;2023-09-19T10:02:28;96086.72;;;24.77
50206;BMP280;36098;48.390;10.856;2023-09-19T10:05:13;96089.97;;;24.92
50206;BMP280;36098;48.390;10.856;2023-09-19T10:07:38;96080.88;;;25.03
50206;BMP280;36098;48.390;10.856;2023-09-19T10:10:07;96088.81;;;25.03
50206;BMP280;36098;48.390;10.856;2023-09-19T10:12:46;96086.81;;;24.90
50206;BMP280;36098;48.390;10.856;2023-09-19T10:15:14;96080.28;;;24.88
50206;BMP280;36098;48.390;10.856;2023-09-19T10:17:42;96083.69;;;25.12
50206;BMP280;36098;48.390;10.856;2023-09-19T10:20:17;96094.38;;;24.78
50206;BMP280;36098;48.390;10.856;2023-09-19T10:23:01;96080.31;;;24.83
50206;BMP280;36098;48.390;10.856;2023-09-19T10:25:28;96083.69;;;24.88
50206;BMP280;36098;48.390;10.856;2023-09-19T10:27:54;96095.25;;;24.69
50206;BMP280;36098;48.390;10.856;2023-09-19T10:30:22;96088.00;;;24.79
50206;BMP280;36098;48.390;10.856;2023-09-19T10:32:56;96072.69;;;24.81
50206;BMP280;36098;48.390;10.856;2023-09-19T10:35:22;96088.41;;;24.68
50206;BMP280;36098;48.390;10.856;2023-09-19T10:37:50;96086.38;;;24.83
50206;BMP280;36098;48.390;10.856;2023-09-19T10:40:18;96080.59;;;24.81
50206;BMP280;36098;48.390;10.856;2023-09-19T10:42:44;96091.78;;;24.97
50206;BMP280;36098;48.390;10.856;2023-09-19T10:45:12;96082.78;;;24.98
50206;BMP280;36098;48.390;10.856;2023-09-19T10:47:40;96101.34;;;25.16
50206;BMP280;36098;48.390;10.856;2023-09-19T10:50:06;96094.66;;;25.00
50206;BMP280;36098;48.390;10.856;2023-09-19T10:52:40;96097.88;;;24.97
50206;BMP280;36098;48.390;10.856;2023-09-19T10:55:07;96086.34;;;25.12
50206;BMP280;36098;48.390;10.856;2023-09-19T10:57:35;96091.13;;;25.33
50206;BMP280;36098;48.390;10.856;2023-09-19T11:03:16;96091.41;;;25.55
50206;BMP280;36098;48.390;10.856;2023-09-19T11:06:01;96100.75;;;25.66
50206;BMP280;36098;48.390;10.856;2023-09-19T11:08:28;96091.56;;;25.63
50206;BMP280;36098;48.390;10.856;2023-09-19T11:10:53;96089.88;;;25.49
50206;BMP280;36098;48.390;10.856;2023-09-19T11:13:27;96094.66;;;25.47
50206;BMP280;36098;48.390;10.856;2023-09-19T11:26:44;96105.09;;;25.10
50206;BMP280;36098;48.390;10.856;2023-09-19T11:29:28;96112.97;;;24.92
50206;BMP280;36098;48.390;10.856;2023-09-19T11:31:55;96112.41;;;24.95
50206;BMP280;36098;48.390;10.856;2023-09-19T11:37:02;96117.97;;;24.93
50206;BMP280;36098;48.390;10.856;2023-09-19T11:39:31;96114.03;;;24.91
50206;BMP280;36098;48.390;10.856;2023-09-19T11:41:58;96105.78;;;24.97
50206;BMP280;36098;48.390;10.856;2023-09-19T11:49:18;96110.66;;;24.85
50206;BMP280;36098;48.390;10.856;2023-09-19T11:51:50;96100.75;;;25.24
50206;BMP280;36098;48.390;10.856;2023-09-19T11:54:17;96085.72;;;25.19
50206;BMP280;36098;48.390;10.856;2023-09-19T11:56:44;96095.72;;;24.99
50206;BMP280;36098;48.390;10.856;2023-09-19T11:59:11;96098.56;;;24.79
50206;BMP280;36098;48.390;10.856;2023-09-19T12:01:38;96085.09;;;25.04
50206;BMP280;36098;48.390;10.856;2023-09-19T12:04:08;96078.66;;;25.15
50206;BMP280;36098;48.390;10.856;2023-09-19T12:06:33;96083.50;;;25.31
50206;BMP280;36098;48.390;10.856;2023-09-19T12:08:59;96082.03;;;24.97
50206;BMP280;36098;48.390;10.856;2023-09-19T12:11:27;96074.59;;;24.99
50206;BMP280;36098;48.390;10.856;2023-09-19T12:13:53;96079.13;;;25.22
50206;BMP280;36098;48.390;10.856;2023-09-19T12:16:21;96071.69;;;25.24
50206;BMP280;36098;48.390;10.856;2023-09-19T12:18:48;96069.22;;;25.32
50206;BMP280;36098;48.390;10.856;2023-09-19T12:21:29;96059.88;;;25.77
50206;BMP280;36098;48.390;10.856;2023-09-19T12:26:39;96054.31;;;25.60
50206;BMP280;36098;48.390;10.856;2023-09-19T12:29:10;96055.72;;;25.52
50206;BMP280;36098;48.390;10.856;2023-09-19T12:31:36;96055.16;;;25.37
50206;BMP280;36098;48.390;10.856;2023-09-19T12:34:02;96060.88;;;25.44
50206;BMP280;36098;48.390;10.856;2023-09-19T12:36:27;96047.72;;;25.39
50206;BMP280;36098;48.390;10.856;2023-09-19T12:38:58;96053.00;;;25.39
50206;BMP280;36098;48.390;10.856;2023-09-19T12:41:25;96044.44;;;25.47
50206;BMP280;36098;48.390;10.856;2023-09-19T12:43:52;96052.50;;;25.55
50206;BMP280;36098;48.390;10.856;2023-09-19T12:46:20;96049.63;;;25.52
50206;BMP280;36098;48.390;10.856;2023-09-19T12:49:16;96049.13;;;25.50
50206;BMP280;36098;48.390;10.856;2023-09-19T12:51:42;96053.16;;;25.47
50206;BMP280;36098;48.390;10.856;2023-09-19T12:54:08;96043.44;;;25.43
50206;BMP280;36098;48.390;10.856;2023-09-19T12:56:43;96043.44;;;25.61
50206;BMP280;36098;48.390;10.856;2023-09-19T12:59:13;96043.72;;;25.60
50206;BMP280;36098;48.390;10.856;2023-09-19T13:01:40;96049.94;;;25.50
50206;BMP280;36098;48.390;10.856;2023-09-19T13:04:21;96044.88;;;25.54
50206;BMP280;36098;48.390;10.856;2023-09-19T13:06:54;96036.88;;;25.96
50206;BMP280;36098;48.390;10.856;2023-09-19T13:09:21;96039.84;;;25.71
50206;BMP280;36098;48.390;10.856;2023-09-19T13:11:48;96040.66;;;25.90
50206;BMP280;36098;48.390;10.856;2023-09-19T13:17:17;96029.88;;;25.49
50206;BMP280;36098;48.390;10.856;2023-09-19T13:19:44;96027.22;;;25.68
50206;BMP280;36098;48.390;10.856;2023-09-19T13:22:36;96035.00;;;25.59
50206;BMP280;36098;48.390;10.856;2023-09-19T13:25:01;96025.84;;;25.52
50206;BMP280;36098;48.390;10.856;2023-09-19T13:27:29;96017.63;;;25.53
50206;BMP280;36098;48.390;10.856;2023-09-19T13:29:55;96017.63;;;25.72
50206;BMP280;36098;48.390;10.856;2023-09-19T13:32:20;96027.56;;;25.80
50206;BMP280;36098;48.390;10.856;2023-09-19T13:34:45;96025.13;;;25.65
50206;BMP280;36098;48.390;10.856;2023-09-19T13:37:11;96021.09;;;25.54
50206;BMP280;36098;48.390;10.856;2023-09-19T13:39:38;96013.06;;;25.59
50206;BMP280;36098;48.390;10.856;2023-09-19T13:42:08;96013.50;;;25.66
50206;BMP280;36098;48.390;10.856;2023-09-19T13:44:37;96000.13;;;25.76
50206;BMP280;36098;48.390;10.856;2023-09-19T13:47:02;96004.13;;;25.92
50206;BMP280;36098;48.390;10.856;2023-09-19T13:49:28;96009.19;;;25.70
50206;BMP280;36098;48.390;10.856;2023-09-19T13:51:54;95997.69;;;25.98
50206;BMP280;36098;48.390;10.856;2023-09-19T13:54:20;96000.31;;;25.84
50206;BMP280;36098;48.390;10.856;2023-09-19T13:56:46;96009.00;;;25.85
50206;BMP280;36098;48.390;10.856;2023-09-19T13:59:11;95999.50;;;25.84
50206;BMP280;36098;48.390;10.856;2023-09-19T14:01:36;96001.06;;;25.85
50206;BMP280;36098;48.390;10.856;2023-09-19T14:04:01;96001.69;;;25.77
50206;BMP280;36098;48.390;10.856;2023-09-19T14:06:27;95980.69;;;25.67
50206;BMP280;36098;48.390;10.856;2023-09-19T14:08:52;95987.13;;;25.61
50206;BMP280;36098;48.390;10.856;2023-09-19T14:11:18;95982.59;;;25.61
50206;BMP280;36098;48.390;10.856;2023-09-19T14:13:43;95981.53;;;25.81
50206;BMP280;36098;48.390;10.856;2023-09-19T14:16:16;95976.97;;;26.18
50206;BMP280;36098;48.390;10.856;2023-09-19T14:18:44;95982.41;;;25.95
50206;BMP280;36098;48.390;10.856;2023-09-19T14:21:10;95975.97;;;26.14
50206;BMP280;36098;48.390;10.856;2023-09-19T14:23:37;95969.94;;;26.41
50206;BMP280;36098;48.390;10.856;2023-09-19T14:26:02;95978.09;;;25.99
50206;BMP280;36098;48.390;10.856;2023-09-19T14:28:27;95969.25;;;26.35
50206;BMP280;36098;48.390;10.856;2023-09-19T14:30:55;95966.13;;;26.47
50206;BMP280;36098;48.390;10.856;2023-09-19T14:33:20;95972.72;;;26.04
50206;BMP280;36098;48.390;10.856;2023-09-19T14:35:45;95972.47;;;25.87
50206;BMP280;36098;48.390;10.856;2023-09-19T14:38:10;95965.16;;;25.97
50206;BMP280;36098;48.390;10.856;2023-09-19T14:40:36;95965.88;;;25.66
50206;BMP280;36098;48.390;10.856;2023-09-19T14:43:02;95964.75;;;25.53